Time;durP1;ratioP1;P1;durP2;ratioP2;P2;SDS_P1;SDS_P2;PMS_P1;PMS_P2;Temp;Humidity;BMP_temperature;BMP_pressure;BME280_temperature;BME280_humidity;BME280_pressure;Samples;Min_cycle;Max_cycle;Signal;HPM_P1;HPM_P2
2021/07/11 00:02:09;;;;;;;4.00;2.55;;;17.60;99.90;;;;;;5065339;28;20107;-76
2021/07/11 00:04:35;;;;;;;4.80;2.97;;;;;;;;;;5064641;28;20143;-79
2021/07/11 00:07:01;;;;;;;3.92;2.65;;;;;;;;;;5061068;28;20032;-79
2021/07/11 00:09:27;;;;;;;6.07;2.58;;;;;;;;;;5064411;28;20118;-78
2021/07/11 00:11:52;;;;;;;4.40;2.58;;;17.60;99.90;;;;;;5063544;28;20029;-79
2021/07/11 00:14:18;;;;;;;3.58;2.58;;;17.60;99.90;;;;;;5066801;28;20479;-77
2021/07/11 00:16:44;;;;;;;4.05;2.60;;;17.70;99.90;;;;;;5066280;28;20043;-79
2021/07/11 00:19:10;;;;;;;6.50;3.00;;;;;;;;;;5070970;28;20244;-79
2021/07/11 00:21:35;;;;;;;4.57;2.50;;;17.60;99.90;;;;;;5062203;28;20024;-78
2021/07/11 00:24:01;;;;;;;7.20;2.80;;;17.60;99.90;;;;;;5067527;28;20048;-78
2021/07/11 00:26:27;;;;;;;4.45;2.90;;;17.60;99.90;;;;;;5059800;28;20060;-79
2021/07/11 00:28:53;;;;;;;4.10;2.70;;;;;;;;;;5062368;28;20020;-79
2021/07/11 00:31:19;;;;;;;5.38;2.90;;;17.60;99.90;;;;;;5065298;28;20024;-79
2021/07/11 00:33:44;;;;;;;3.97;2.75;;;17.60;99.90;;;;;;5062332;28;20051;-78
2021/07/11 00:36:10;;;;;;;4.47;2.30;;;;;;;;;;5060858;28;20151;-78
2021/07/11 00:38:36;;;;;;;5.65;2.70;;;17.60;99.90;;;;;;5061283;28;20476;-78
2021/07/11 00:41:02;;;;;;;5.28;2.90;;;19.20;99.90;;;;;;5062001;28;20043;-77
2021/07/11 00:43:28;;;;;;;4.00;2.85;;;;;;;;;;5063233;28;20032;-75
2021/07/11 00:45:54;;;;;;;4.72;2.78;;;17.50;99.90;;;;;;5061062;28;20033;-77
2021/07/11 00:48:20;;;;;;;5.18;2.70;;;17.50;99.90;;;;;;5065802;28;20196;-78
2021/07/11 00:50:46;;;;;;;6.07;3.20;;;17.40;99.90;;;;;;5060476;28;20036;-78
2021/07/11 00:53:12;;;;;;;5.55;2.70;;;17.50;99.90;;;;;;5066242;28;20025;-78
2021/07/11 00:55:38;;;;;;;3.60;2.70;;;19.80;99.90;;;;;;5062689;28;20135;-77
2021/07/11 00:58:04;;;;;;;4.80;2.85;;;;;;;;;;5062954;28;20525;-78
2021/07/11 01:00:31;;;;;;;4.18;2.60;;;17.30;99.90;;;;;;5061801;28;20025;-78
2021/07/11 01:03:20;;;;;;;6.72;3.75;;;17.30;99.90;;;;;;5062098;28;20036;-78
2021/07/11 01:05:46;;;;;;;7.72;3.50;;;17.30;99.90;;;;;;5058462;28;20090;-78
2021/07/11 01:08:21;;;;;;;8.73;3.97;;;17.30;99.90;;;;;;5062895;28;20024;-79
2021/07/11 01:11:09;;;;;;;5.00;2.60;;;17.30;99.90;;;;;;5057196;28;20085;-79
2021/07/11 01:13:37;;;;;;;5.03;2.78;;;17.30;99.90;;;;;;5057789;28;20032;-81
2021/07/11 01:16:08;;;;;;;5.93;2.70;;;19.00;99.90;;;;;;5059908;28;20752;-78
2021/07/11 01:18:38;;;;;;;4.03;2.80;;;;;;;;;;5059795;28;20033;-79
2021/07/11 01:21:08;;;;;;;5.93;2.60;;;17.20;99.90;;;;;;5060013;28;20547;-79
2021/07/11 01:23:47;;;;;;;4.97;3.05;;;17.20;99.90;;;;;;5065799;28;20147;-78
2021/07/11 01:26:14;;;;;;;4.55;2.88;;;17.10;99.90;;;;;;5068707;28;20039;-79
2021/07/11 01:28:42;;;;;;;4.32;3.17;;;17.20;99.90;;;;;;5061350;28;20032;-78
2021/07/11 01:31:09;;;;;;;5.63;2.92;;;17.20;99.90;;;;;;5060561;28;20098;-78
2021/07/11 01:33:37;;;;;;;4.20;2.75;;;17.10;99.90;;;;;;5060812;28;20036;-79
2021/07/11 01:36:04;;;;;;;4.45;2.88;;;18.40;99.90;;;;;;5063877;28;20024;-79
2021/07/11 01:38:32;;;;;;;6.40;3.30;;;17.20;99.90;;;;;;5064849;28;21245;-78
2021/07/11 01:40:58;;;;;;;4.35;2.75;;;17.30;99.90;;;;;;5058728;28;20820;-78
2021/07/11 01:43:25;;;;;;;5.15;2.70;;;17.30;99.90;;;;;;5062156;28;20025;-78
2021/07/11 01:45:52;;;;;;;5.78;2.90;;;17.30;99.90;;;;;;5059186;28;20013;-79
2021/07/11 01:48:19;;;;;;;4.60;2.92;;;;;;;;;;5067219;28;20016;-78
2021/07/11 01:50:52;;;;;;;7.30;2.95;;;17.30;99.90;;;;;;5065762;28;20487;-77
2021/07/11 01:53:37;;;;;;;4.00;2.63;;;17.30;99.90;;;;;;5063436;28;20029;-78
2021/07/11 01:56:05;;;;;;;4.03;2.10;;;17.30;99.90;;;;;;5059486;28;20486;-78
2021/07/11 01:58:31;;;;;;;4.20;2.25;;;17.10;99.90;;;;;;5062320;28;20058;-78
2021/07/11 02:00:58;;;;;;;6.72;2.20;;;19.80;99.90;;;;;;5062790;28;20033;-78
2021/07/11 02:03:25;;;;;;;4.82;2.30;;;17.30;99.90;;;;;;5064617;28;20056;-78
2021/07/11 02:05:51;;;;;;;4.85;2.55;;;;;;;;;;5062668;28;20588;-78
2021/07/11 02:08:17;;;;;;;5.13;3.15;;;;;;;;;;5064104;28;20045;-79
2021/07/11 02:10:48;;;;;;;4.60;2.28;;;17.20;99.90;;;;;;5060492;28;20039;-78
2021/07/11 02:13:25;;;;;;;3.22;2.38;;;17.00;99.90;;;;;;5076288;28;20037;-79
2021/07/11 02:15:54;;;;;;;4.78;2.50;;;16.90;99.90;;;;;;5060347;28;20473;-80
2021/07/11 02:18:25;;;;;;;3.53;2.65;;;16.90;99.90;;;;;;5063866;28;20024;-79
2021/07/11 02:20:52;;;;;;;4.40;2.75;;;20.50;99.90;;;;;;5063207;28;20029;-79
2021/07/11 02:23:20;;;;;;;5.18;2.75;;;16.90;99.90;;;;;;5065200;28;20769;-79
2021/07/11 02:25:47;;;;;;;3.83;2.65;;;16.90;99.90;;;;;;5059746;28;20032;-78
2021/07/11 02:28:13;;;;;;;4.03;2.30;;;;;;;;;;5062193;28;20029;-78
2021/07/11 02:30:41;;;;;;;4.82;2.55;;;16.90;99.90;;;;;;5064560;28;20063;-78
2021/07/11 02:33:13;;;;;;;4.22;3.08;;;17.00;99.90;;;;;;5061561;28;20032;-79
2021/07/11 02:35:42;;;;;;;3.47;2.35;;;19.10;99.90;;;;;;5061200;28;20043;-80
2021/07/11 02:38:08;;;;;;;3.85;2.60;;;17.00;99.90;;;;;;5060429;28;20025;-79
2021/07/11 02:40:35;;;;;;;4.47;2.38;;;17.00;99.90;;;;;;5063275;28;20029;-79
2021/07/11 02:43:05;;;;;;;3.42;2.50;;;16.90;99.90;;;;;;5061162;28;20029;-78
2021/07/11 02:45:32;;;;;;;5.10;2.33;;;16.90;99.90;;;;;;5061525;28;20047;-80
2021/07/11 02:48:00;;;;;;;4.47;2.20;;;16.90;99.90;;;;;;5062120;28;20115;-78
2021/07/11 02:50:26;;;;;;;5.53;2.22;;;;;;;;;;5061030;28;20029;-77
2021/07/11 02:52:54;;;;;;;3.42;2.10;;;16.80;99.90;;;;;;5064691;28;20032;-79
2021/07/11 02:55:26;;;;;;;3.97;1.75;;;16.80;99.90;;;;;;5067488;28;20497;-79
2021/07/11 02:57:55;;;;;;;2.83;1.88;;;16.80;99.90;;;;;;5066578;28;20028;-79
2021/07/11 03:00:21;;;;;;;4.57;2.00;;;;;;;;;;5065978;28;20032;-78
2021/07/11 03:02:48;;;;;;;3.78;1.90;;;;;;;;;;5065301;28;20375;-79
2021/07/11 03:05:21;;;;;;;4.88;2.10;;;16.80;99.90;;;;;;5070829;28;20054;-79
2021/07/11 03:07:47;;;;;;;6.07;2.05;;;17.30;99.90;;;;;;5065553;28;20020;-78
2021/07/11 03:10:14;;;;;;;2.85;1.90;;;16.80;99.90;;;;;;5064266;28;20043;-79
2021/07/11 03:12:40;;;;;;;4.45;1.85;;;;;;;;;;5066997;28;20120;-79
2021/07/11 03:15:06;;;;;;;4.13;1.95;;;16.70;99.90;;;;;;5069965;28;20089;-80
2021/07/11 03:17:33;;;;;;;3.03;1.80;;;16.60;99.90;;;;;;5067588;28;20024;-80
2021/07/11 03:20:00;;;;;;;6.28;1.88;;;16.50;99.90;;;;;;5062127;28;20044;-79
2021/07/11 03:22:29;;;;;;;4.22;1.88;;;16.40;99.90;;;;;;5062603;28;20094;-79
2021/07/11 03:25:01;;;;;;;3.43;2.00;;;19.70;99.90;;;;;;5068581;28;20147;-80
2021/07/11 03:27:29;;;;;;;4.15;2.28;;;19.10;99.90;;;;;;5062201;28;20382;-79
2021/07/11 03:30:35;;;;;;;5.03;2.00;;;16.20;99.90;;;;;;5066193;28;20031;-80
2021/07/11 03:33:02;;;;;;;5.78;2.10;;;;;;;;;;5061462;28;20028;-78
2021/07/11 03:35:48;;;;;;;4.10;1.92;;;16.00;99.90;;;;;;5068034;28;20266;-78
2021/07/11 03:38:18;;;;;;;5.65;2.00;;;16.00;99.90;;;;;;5079045;28;20031;-79
2021/07/11 03:40:45;;;;;;;7.00;2.83;;;16.00;99.90;;;;;;5069334;28;20722;-74
2021/07/11 03:43:14;;;;;;;4.60;2.30;;;16.90;99.90;;;;;;5059990;28;20028;-78
2021/07/11 03:45:42;;;;;;;6.30;2.08;;;15.90;99.90;;;;;;5050598;28;20052;-78
2021/07/11 03:48:11;;;;;;;3.65;1.88;;;18.00;99.90;;;;;;5066401;28;20024;-78
2021/07/11 03:50:44;;;;;;;3.63;2.00;;;15.90;99.90;;;;;;5063269;28;20380;-79
2021/07/11 03:53:10;;;;;;;5.63;2.33;;;15.80;99.90;;;;;;5072366;28;20028;-78
2021/07/11 03:55:37;;;;;;;5.30;2.08;;;17.40;99.90;;;;;;5060980;28;20501;-79
2021/07/11 03:58:04;;;;;;;6.18;2.40;;;16.90;99.90;;;;;;5064256;28;20127;-78
2021/07/11 04:00:30;;;;;;;4.07;2.15;;;15.80;99.90;;;;;;5067014;28;20494;-79
2021/07/11 04:02:57;;;;;;;8.50;2.22;;;15.80;99.90;;;;;;5067100;28;20029;-80
2021/07/11 04:05:29;;;;;;;6.53;2.30;;;16.10;99.90;;;;;;5065033;28;20092;-78
2021/07/11 04:07:56;;;;;;;4.25;2.30;;;16.60;99.90;;;;;;5064103;28;20021;-79
2021/07/11 04:10:25;;;;;;;4.63;2.30;;;15.80;99.90;;;;;;5063043;28;20028;-79
2021/07/11 04:12:51;;;;;;;8.40;2.72;;;15.80;99.90;;;;;;5064629;28;20029;-78
2021/07/11 04:15:17;;;;;;;3.03;1.80;;;;;;;;;;5064671;28;20040;-79
2021/07/11 04:17:46;;;;;;;3.92;2.20;;;15.70;99.90;;;;;;5063341;28;20482;-78
2021/07/11 04:20:15;;;;;;;4.40;2.03;;;16.20;99.90;;;;;;5062728;28;20118;-79
2021/07/11 04:22:42;;;;;;;3.72;2.17;;;15.80;99.90;;;;;;5064780;28;20033;-78
2021/07/11 04:25:11;;;;;;;4.60;2.35;;;15.90;99.90;;;;;;5065530;28;20032;-80
2021/07/11 04:27:41;;;;;;;3.85;2.22;;;15.90;99.90;;;;;;5062732;28;20047;-77
2021/07/11 04:30:08;;;;;;;4.80;2.10;;;15.90;99.90;;;;;;5065587;28;20491;-79
2021/07/11 04:32:34;;;;;;;6.18;2.35;;;15.90;99.90;;;;;;5062889;28;20052;-78
2021/07/11 04:35:00;;;;;;;4.75;2.40;;;15.90;99.90;;;;;;5064034;28;20039;-78
2021/07/11 04:37:26;;;;;;;5.05;2.40;;;16.80;99.90;;;;;;5065293;28;20024;-79
2021/07/11 04:39:51;;;;;;;3.10;1.90;;;16.10;99.90;;;;;;5065875;28;20031;-78
2021/07/11 04:42:17;;;;;;;5.35;2.22;;;16.10;99.90;;;;;;5064801;28;20050;-78
2021/07/11 04:44:44;;;;;;;4.60;2.00;;;;;;;;;;5065304;28;20033;-79
2021/07/11 04:47:11;;;;;;;5.18;2.40;;;16.20;99.90;;;;;;5069170;28;20041;-77
2021/07/11 04:49:37;;;;;;;4.97;2.35;;;;;;;;;;5066749;28;20483;-76
2021/07/11 04:52:04;;;;;;;4.28;2.22;;;16.30;99.90;;;;;;5067397;28;20204;-78
2021/07/11 04:54:30;;;;;;;4.65;2.35;;;16.40;99.90;;;;;;5071511;28;20025;-79
2021/07/11 04:56:55;;;;;;;8.20;2.78;;;16.50;99.90;;;;;;5067351;28;20024;-79
2021/07/11 04:59:21;;;;;;;3.30;1.90;;;18.20;99.90;;;;;;5070291;28;20451;-78
2021/07/11 05:01:47;;;;;;;5.82;2.35;;;16.60;99.90;;;;;;5066237;28;20028;-79
2021/07/11 05:04:13;;;;;;;6.55;2.17;;;;;;;;;;5069249;28;20021;-78
2021/07/11 05:06:39;;;;;;;4.60;2.17;;;;;;;;;;5067807;28;20028;-78
2021/07/11 05:09:05;;;;;;;6.35;2.40;;;16.70;99.90;;;;;;5068447;28;20032;-79
2021/07/11 05:11:31;;;;;;;3.67;2.00;;;19.70;99.90;;;;;;5068060;28;20438;-79
2021/07/11 05:13:56;;;;;;;3.92;1.88;;;18.80;99.90;;;;;;5065558;28;20082;-80
2021/07/11 05:16:22;;;;;;;2.45;1.70;;;18.60;99.90;;;;;;5068754;28;20124;-79
2021/07/11 05:18:48;;;;;;;3.30;1.98;;;17.70;99.90;;;;;;5072888;28;20052;-78
2021/07/11 05:21:14;;;;;;;4.20;2.58;;;;;;;;;;5069592;28;20637;-79
2021/07/11 05:23:40;;;;;;;4.68;2.10;;;;;;;;;;5065514;28;20108;-78
2021/07/11 05:26:06;;;;;;;6.65;2.08;;;;;;;;;;5070848;28;20115;-79
2021/07/11 05:28:32;;;;;;;6.82;2.53;;;;;;;;;;5067082;28;20463;-80
2021/07/11 05:30:58;;;;;;;3.83;2.00;;;16.60;99.90;;;;;;5069585;28;20028;-80
2021/07/11 05:33:24;;;;;;;3.28;2.08;;;;;;;;;;5065280;28;20020;-79
2021/07/11 05:35:50;;;;;;;4.60;2.40;;;16.80;99.90;;;;;;5068333;28;20040;-79
2021/07/11 05:38:16;;;;;;;4.07;1.98;;;;;;;;;;5066180;28;20028;-79
2021/07/11 05:40:42;;;;;;;8.10;1.90;;;;;;;;;;5070098;28;20142;-79
2021/07/11 05:43:08;;;;;;;4.00;2.40;;;;;;;;;;5069729;28;20096;-80
2021/07/11 05:45:34;;;;;;;2.90;1.80;;;;;;;;;;5070271;28;20025;-79
2021/07/11 05:48:00;;;;;;;3.70;1.90;;;17.40;99.90;;;;;;5063507;28;20059;-80
2021/07/11 05:50:26;;;;;;;5.20;2.40;;;19.10;99.90;;;;;;5066106;28;20025;-78
2021/07/11 05:52:52;;;;;;;4.05;2.03;;;;;;;;;;5062640;28;20074;-78
2021/07/11 05:55:18;;;;;;;8.50;2.35;;;17.40;99.90;;;;;;5068556;28;20092;-79
2021/07/11 05:57:43;;;;;;;3.50;1.80;;;17.40;99.90;;;;;;5067988;28;20486;-80
2021/07/11 06:00:11;;;;;;;4.35;2.20;;;17.90;99.90;;;;;;5064487;28;20036;-77
2021/07/11 06:02:37;;;;;;;6.85;2.35;;;17.90;99.90;;;;;;5064431;28;20660;-78
2021/07/11 06:05:04;;;;;;;3.15;1.85;;;18.40;99.90;;;;;;5066541;28;20116;-79
2021/07/11 06:07:30;;;;;;;9.13;2.58;;;18.40;99.90;;;;;;5067851;28;20505;-78
2021/07/11 06:09:57;;;;;;;4.63;2.20;;;18.20;99.90;;;;;;5066946;28;20033;-77
2021/07/11 06:12:24;;;;;;;3.80;1.80;;;;;;;;;;5066557;28;20359;-77
2021/07/11 06:14:49;;;;;;;3.97;1.90;;;18.60;99.90;;;;;;5062640;28;20051;-78
2021/07/11 06:17:15;;;;;;;4.82;2.05;;;21.10;99.90;;;;;;5061158;28;20032;-78
2021/07/11 06:19:41;;;;;;;4.75;1.77;;;19.70;99.90;;;;;;5078474;28;20059;-78
2021/07/11 06:22:07;;;;;;;3.65;1.75;;;20.20;99.90;;;;;;5060749;28;20029;-78
2021/07/11 06:24:33;;;;;;;2.83;1.80;;;19.90;99.90;;;;;;5066034;28;20659;-78
2021/07/11 06:26:58;;;;;;;4.32;2.03;;;19.80;99.90;;;;;;5068283;28;20402;-79
2021/07/11 06:29:24;;;;;;;3.95;2.08;;;19.80;99.90;;;;;;5067060;28;20067;-78
2021/07/11 06:31:50;;;;;;;5.47;2.08;;;20.00;99.90;;;;;;5069604;28;20112;-78
2021/07/11 06:34:15;;;;;;;3.50;2.15;;;21.90;99.90;;;;;;5062953;28;20028;-79
2021/07/11 06:36:41;;;;;;;4.20;2.45;;;;;;;;;;5067524;28;20017;-78
2021/07/11 06:39:07;;;;;;;7.10;3.70;;;19.80;99.90;;;;;;5068384;28;20032;-78
2021/07/11 06:41:33;;;;;;;6.07;4.50;;;19.80;99.90;;;;;;5066948;28;20029;-77
2021/07/11 06:43:59;;;;;;;6.47;4.03;;;;;;;;;;5063690;28;20028;-77
2021/07/11 06:46:25;;;;;;;6.70;4.85;;;19.80;99.90;;;;;;5065945;28;20028;-77
2021/07/11 06:48:51;;;;;;;8.77;4.57;;;19.90;99.90;;;;;;5070578;28;20024;-77
2021/07/11 06:51:16;;;;;;;6.38;4.18;;;20.00;99.90;;;;;;5066051;28;20033;-77
2021/07/11 06:53:43;;;;;;;6.85;4.07;;;20.80;99.90;;;;;;5065907;28;20037;-78
2021/07/11 06:56:09;;;;;;;6.22;4.05;;;19.70;99.90;;;;;;5058320;28;20084;-78
2021/07/11 06:58:35;;;;;;;7.15;4.78;;;;;;;;;;5062368;28;20152;-77
2021/07/11 07:01:01;;;;;;;10.18;5.78;;;;;;;;;;5063219;28;20063;-78
2021/07/11 07:03:26;;;;;;;11.48;7.20;;;19.80;99.50;;;;;;5066337;28;20051;-78
2021/07/11 07:05:52;;;;;;;14.15;8.45;;;23.20;99.90;;;;;;5067822;28;20029;-78
2021/07/11 07:08:18;;;;;;;11.40;6.95;;;20.70;99.90;;;;;;5060123;28;20635;-77
2021/07/11 07:10:44;;;;;;;10.60;7.00;;;21.20;99.90;;;;;;5060425;28;20025;-78
2021/07/11 07:13:10;;;;;;;10.20;6.40;;;19.70;99.90;;;;;;5062113;28;20032;-78
2021/07/11 07:15:36;;;;;;;9.52;6.00;;;;;;;;;;5062434;28;20031;-78
2021/07/11 07:18:03;;;;;;;8.38;5.50;;;19.70;99.90;;;;;;5064280;28;20140;-78
2021/07/11 07:20:29;;;;;;;10.55;6.63;;;19.70;99.90;;;;;;5062180;28;20078;-78
2021/07/11 07:22:54;;;;;;;7.47;4.00;;;20.00;99.90;;;;;;5064640;28;20032;-77
2021/07/11 07:25:22;;;;;;;6.07;3.72;;;20.10;99.90;;;;;;5063071;28;20029;-77
2021/07/11 07:27:48;;;;;;;5.00;3.15;;;20.00;99.90;;;;;;5062566;28;20031;-78
2021/07/11 07:30:15;;;;;;;7.00;2.83;;;20.20;99.90;;;;;;5065343;28;20414;-78
2021/07/11 07:32:45;;;;;;;6.43;2.90;;;19.90;99.80;;;;;;5057084;28;20040;-77
2021/07/11 07:35:11;;;;;;;4.78;3.05;;;20.50;99.90;;;;;;5057511;28;20025;-78
2021/07/11 07:37:36;;;;;;;5.13;2.53;;;19.80;99.70;;;;;;5062650;28;20024;-77
2021/07/11 07:40:04;;;;;;;4.82;3.03;;;19.80;99.70;;;;;;5055567;28;20033;-77
2021/07/11 07:42:31;;;;;;;5.00;2.97;;;19.90;99.90;;;;;;5077000;28;20043;-78
2021/07/11 07:44:57;;;;;;;7.47;3.30;;;21.40;99.90;;;;;;5055288;28;20148;-78
2021/07/11 07:47:23;;;;;;;6.97;3.05;;;;;;;;;;5056481;28;20154;-78
2021/07/11 07:49:49;;;;;;;5.35;3.17;;;20.10;99.50;;;;;;5060784;28;20041;-78
2021/07/11 07:52:15;;;;;;;5.50;3.70;;;;;;;;;;5065449;28;20497;-78
2021/07/11 07:54:40;;;;;;;4.72;3.22;;;20.50;98.90;;;;;;5064200;28;20097;-78
2021/07/11 07:57:06;;;;;;;5.57;3.70;;;20.50;98.90;;;;;;5068250;28;20502;-78
2021/07/11 07:59:31;;;;;;;5.45;3.85;;;21.80;99.30;;;;;;5070082;28;20033;-78
2021/07/11 08:01:58;;;;;;;7.60;3.80;;;;;;;;;;5060836;28;20025;-79
2021/07/11 08:04:23;;;;;;;8.88;3.63;;;20.20;99.60;;;;;;5068188;28;20466;-78
2021/07/11 08:06:49;;;;;;;7.57;4.07;;;20.10;99.90;;;;;;5069796;28;20054;-78
2021/07/11 08:09:16;;;;;;;5.97;3.03;;;;;;;;;;5071426;28;20482;-81
2021/07/11 08:11:43;;;;;;;4.60;3.03;;;20.30;99.70;;;;;;5067897;28;20017;-79
2021/07/11 08:14:09;;;;;;;4.40;2.78;;;22.00;99.90;;;;;;5068188;28;20024;-79
2021/07/11 08:16:34;;;;;;;4.80;2.75;;;20.50;99.70;;;;;;5073232;28;20047;-80
2021/07/11 08:19:00;;;;;;;5.13;2.90;;;;;;;;;;5075496;28;20058;-80
2021/07/11 08:21:26;;;;;;;6.07;2.63;;;;;;;;;;5069979;28;20122;-80
2021/07/11 08:23:52;;;;;;;4.97;2.58;;;;;;;;;;5070371;28;20021;-79
2021/07/11 08:26:18;;;;;;;3.33;2.50;;;;;;;;;;5066566;28;20404;-80
2021/07/11 08:28:44;;;;;;;3.85;2.05;;;;;;;;;;5071359;28;20035;-80
2021/07/11 08:31:10;;;;;;;5.47;3.28;;;;;;;;;;5065085;28;20040;-79
2021/07/11 08:33:36;;;;;;;6.28;2.97;;;;;;;;;;5065649;28;20044;-77
2021/07/11 08:36:02;;;;;;;4.80;3.00;;;21.40;96.80;;;;;;5069850;28;20118;-80
2021/07/11 08:38:28;;;;;;;5.70;2.78;;;21.40;97.20;;;;;;5076474;28;20020;-80
2021/07/11 08:40:54;;;;;;;6.13;3.03;;;;;;;;;;5065293;28;20029;-78
2021/07/11 08:43:20;;;;;;;6.45;3.30;;;21.40;97.00;;;;;;5059217;28;20024;-80
2021/07/11 08:45:46;;;;;;;5.15;3.03;;;;;;;;;;5060037;28;20024;-78
2021/07/11 08:48:12;;;;;;;5.95;3.22;;;;;;;;;;5066224;28;20032;-79
2021/07/11 08:50:38;;;;;;;5.13;2.70;;;;;;;;;;5054080;28;20035;-77
2021/07/11 08:53:04;;;;;;;5.30;2.60;;;;;;;;;;5051186;28;20523;-77
2021/07/11 08:55:30;;;;;;;4.35;2.60;;;;;;;;;;5049302;28;20028;-77
2021/07/11 08:58:01;;;;;;;6.65;3.25;;;20.90;97.60;;;;;;5050891;28;20475;-78
2021/07/11 09:00:28;;;;;;;6.68;2.80;;;;;;;;;;5053906;28;20036;-78
2021/07/11 09:02:57;;;;;;;4.03;2.53;;;;;;;;;;5052033;28;20028;-76
2021/07/11 09:05:25;;;;;;;8.07;2.50;;;21.30;97.00;;;;;;5053829;28;20021;-77
2021/07/11 09:08:14;;;;;;;3.53;2.28;;;21.50;99.90;;;;;;5051052;28;20148;-76
2021/07/11 09:10:47;;;;;;;3.75;2.20;;;21.60;96.60;;;;;;5052162;28;20021;-75
2021/07/11 09:13:16;;;;;;;3.00;1.80;;;21.50;95.90;;;;;;5050009;28;20650;-78
2021/07/11 09:15:46;;;;;;;3.42;1.83;;;21.50;96.30;;;;;;5059420;28;20636;-79
2021/07/11 09:18:12;;;;;;;3.05;1.90;;;21.50;96.50;;;;;;5057142;28;20025;-77
2021/07/11 09:21:01;;;;;;;4.15;2.35;;;21.50;96.90;;;;;;5057042;28;20033;-79
2021/07/11 09:23:29;;;;;;;2.60;1.75;;;21.50;96.90;;;;;;5053990;28;20128;-80
2021/07/11 09:26:25;;;;;;;3.63;2.00;;;21.60;95.80;;;;;;5056344;28;20109;-78
2021/07/11 09:28:53;;;;;;;3.67;1.75;;;21.50;95.50;;;;;;5050673;28;20119;-82
2021/07/11 09:31:21;;;;;;;3.70;1.85;;;21.30;96.00;;;;;;5055801;28;20033;-76
2021/07/11 09:33:55;;;;;;;3.47;1.67;;;22.60;96.20;;;;;;5054615;28;20435;-78
2021/07/11 09:36:22;;;;;;;2.35;1.52;;;21.80;94.50;;;;;;5062295;28;20036;-78
2021/07/11 09:38:49;;;;;;;2.58;1.55;;;21.90;94.80;;;;;;5056971;28;20486;-78
2021/07/11 09:41:25;;;;;;;3.28;1.50;;;22.20;94.10;;;;;;5054986;28;20025;-79
2021/07/11 09:43:53;;;;;;;2.05;1.40;;;22.40;94.00;;;;;;5056467;28;20044;-79
2021/07/11 09:46:19;;;;;;;1.90;1.40;;;;;;;;;;5053561;28;20033;-80
2021/07/11 09:48:45;;;;;;;5.45;1.67;;;23.10;93.70;;;;;;5054836;28;20040;-79
2021/07/11 09:51:16;;;;;;;2.42;1.60;;;24.10;93.00;;;;;;5055407;28;20025;-79
2021/07/11 09:53:42;;;;;;;3.38;1.92;;;;;;;;;;5051484;28;20036;-78
2021/07/11 09:56:14;;;;;;;4.30;1.90;;;23.40;93.20;;;;;;5052635;28;20600;-79
2021/07/11 09:58:40;;;;;;;3.75;1.90;;;23.40;93.30;;;;;;5050131;28;20028;-78
2021/07/11 10:01:10;;;;;;;2.75;1.85;;;23.30;93.70;;;;;;5061225;28;20062;-80
2021/07/11 10:03:36;;;;;;;3.70;1.90;;;;;;;;;;5068754;28;20021;-78
2021/07/11 10:06:02;;;;;;;2.85;1.90;;;;;;;;;;5056535;28;20037;-78
2021/07/11 10:08:28;;;;;;;11.10;8.65;;;22.60;94.10;;;;;;5055682;28;20035;-76
2021/07/11 10:10:54;;;;;;;3.60;2.55;;;22.40;94.70;;;;;;5057088;28;20032;-79
2021/07/11 10:13:20;;;;;;;3.53;1.80;;;22.20;94.30;;;;;;5068213;28;20531;-78
2021/07/11 10:15:45;;;;;;;4.13;2.28;;;22.10;94.70;;;;;;5057483;28;20033;-76
2021/07/11 10:18:13;;;;;;;2.42;1.73;;;22.40;94.90;;;;;;5055150;28;20355;-79
2021/07/11 10:20:53;;;;;;;2.75;1.70;;;22.70;93.50;;;;;;5074782;28;20052;-79
2021/07/11 10:23:36;;;;;;;4.78;2.33;;;22.80;93.30;;;;;;5060783;28;20033;-79
2021/07/11 10:26:06;;;;;;;3.20;2.10;;;22.90;93.70;;;;;;5063950;28;20067;-78
2021/07/11 10:28:32;;;;;;;;;;;23.00;93.80;;;;;;5054701;28;20089;-79
2021/07/11 10:30:59;;;;;;;3.22;1.80;;;;;;;;;;5054689;28;20298;-80
2021/07/11 10:33:26;;;;;;;3.35;1.67;;;22.90;92.30;;;;;;5067233;28;20020;-78
2021/07/11 10:36:01;;;;;;;4.88;2.03;;;22.80;92.50;;;;;;5067146;28;20060;-79
2021/07/11 10:38:36;;;;;;;3.00;1.77;;;23.10;92.70;;;;;;5057751;28;20107;-78
2021/07/11 10:41:14;;;;;;;3.55;2.13;;;23.30;92.40;;;;;;5071324;28;20043;-78
2021/07/11 10:43:41;;;;;;;3.47;1.90;;;23.40;92.80;;;;;;5056702;28;20504;-78
2021/07/11 10:46:07;;;;;;;5.18;2.60;;;23.70;93.20;;;;;;5061014;28;20318;-78
2021/07/11 10:48:33;;;;;;;5.80;2.85;;;23.30;93.40;;;;;;5061124;28;20039;-78
2021/07/11 10:50:59;;;;;;;6.60;2.40;;;23.20;93.20;;;;;;5055336;28;20386;-79
2021/07/11 10:53:33;;;;;;;3.30;2.20;;;22.90;93.30;;;;;;5056838;28;20032;-77
2021/07/11 10:55:59;;;;;;;4.18;2.50;;;;;;;;;;5059530;28;20041;-78
2021/07/11 10:58:27;;;;;;;4.38;2.47;;;;;;;;;;5054561;28;20126;-78
2021/07/11 11:00:55;;;;;;;6.30;2.65;;;;;;;;;;5058035;28;20036;-78
2021/07/11 11:03:25;;;;;;;4.15;2.30;;;22.60;94.20;;;;;;5060227;28;20028;-77
2021/07/11 11:05:52;;;;;;;5.55;2.20;;;22.60;94.10;;;;;;5057792;28;20033;-78
2021/07/11 11:08:25;;;;;;;4.00;1.92;;;22.50;93.80;;;;;;5061444;28;20036;-77
2021/07/11 11:10:53;;;;;;;3.70;2.15;;;22.80;93.50;;;;;;5071144;28;20039;-78
2021/07/11 11:13:25;;;;;;;4.53;2.20;;;;;;;;;;5057156;28;20048;-79
2021/07/11 11:15:56;;;;;;;3.25;2.00;;;22.50;93.20;;;;;;5060757;28;20040;-79
2021/07/11 11:18:23;;;;;;;2.88;1.70;;;22.50;94.00;;;;;;5062019;28;20054;-79
2021/07/11 11:20:58;;;;;;;7.18;3.08;;;22.80;92.70;;;;;;5065265;28;20024;-79
2021/07/11 11:23:26;;;;;;;5.68;2.55;;;22.90;92.30;;;;;;5065520;28;20028;-78
2021/07/11 11:25:52;;;;;;;3.22;1.55;;;23.00;92.10;;;;;;5063775;28;20017;-78
2021/07/11 11:28:30;;;;;;;6.32;2.00;;;23.00;92.60;;;;;;5069880;28;20037;-81
2021/07/11 11:31:12;;;;;;;4.03;2.20;;;22.90;92.40;;;;;;5061468;28;20309;-79
2021/07/11 11:33:45;;;;;;;1.85;1.40;;;23.00;92.00;;;;;;5064579;28;20032;-79
2021/07/11 11:36:11;;;;;;;2.17;1.50;;;23.50;91.70;;;;;;5060246;28;20098;-78
2021/07/11 11:38:43;;;;;;;3.08;1.85;;;23.60;91.40;;;;;;5064377;28;20096;-79
2021/07/11 11:41:16;;;;;;;2.88;1.90;;;25.40;91.30;;;;;;5071460;28;20099;-78
2021/07/11 11:43:43;;;;;;;2.58;1.60;;;24.10;90.80;;;;;;5068505;28;20021;-79
2021/07/11 11:46:09;;;;;;;2.50;1.50;;;;;;;;;;5069043;28;20021;-79
2021/07/11 11:48:35;;;;;;;3.85;1.70;;;24.10;88.70;;;;;;5069375;28;20036;-78
2021/07/11 11:51:05;;;;;;;4.40;1.83;;;24.30;88.20;;;;;;5070762;28;20035;-79
2021/07/11 11:53:50;;;;;;;2.47;1.50;;;24.30;87.00;;;;;;5067891;28;20021;-78
2021/07/11 11:56:16;;;;;;;2.40;1.55;;;24.40;87.40;;;;;;5056329;28;20055;-77
2021/07/11 11:58:42;;;;;;;1.95;1.33;;;24.50;86.50;;;;;;5058360;28;20033;-79
2021/07/11 12:01:13;;;;;;;5.57;2.25;;;24.50;85.30;;;;;;5062599;28;20032;-78
2021/07/11 12:03:41;;;;;;;2.58;1.42;;;24.50;84.20;;;;;;5058942;28;20478;-77
2021/07/11 12:06:11;;;;;;;2.25;1.30;;;24.90;84.90;;;;;;5066443;28;20035;-79
2021/07/11 12:08:42;;;;;;;3.20;1.70;;;24.60;84.10;;;;;;5061025;28;20051;-76
2021/07/11 12:11:10;;;;;;;2.20;1.40;;;24.60;84.80;;;;;;5063229;28;20537;-78
2021/07/11 12:13:37;;;;;;;3.75;2.40;;;24.60;84.30;;;;;;5061048;28;20035;-76
2021/07/11 12:16:14;;;;;;;2.97;1.70;;;24.60;84.80;;;;;;5064588;28;20032;-77
2021/07/11 12:18:41;;;;;;;2.50;1.60;;;24.50;85.00;;;;;;5062847;28;20025;-78
2021/07/11 12:21:06;;;;;;;3.83;1.67;;;24.40;86.10;;;;;;5059340;28;20032;-78
2021/07/11 12:23:32;;;;;;;1.85;1.35;;;23.50;84.90;;;;;;5059649;28;20036;-80
2021/07/11 12:26:05;;;;;;;4.35;2.30;;;24.10;85.80;;;;;;5062458;28;20056;-79
2021/07/11 12:28:32;;;;;;;3.60;2.20;;;23.80;85.90;;;;;;5058267;28;20025;-78
2021/07/11 12:30:58;;;;;;;3.17;1.70;;;23.60;87.40;;;;;;5051870;28;20389;-76
2021/07/11 12:33:33;;;;;;;3.33;1.73;;;23.50;86.60;;;;;;5053756;28;20024;-78
2021/07/11 12:36:03;;;;;;;5.47;2.40;;;23.80;86.50;;;;;;5061009;28;20116;-77
2021/07/11 12:38:38;;;;;;;3.95;2.15;;;24.20;85.70;;;;;;5056060;28;20033;-78
2021/07/11 12:41:07;;;;;;;2.40;1.60;;;24.30;85.60;;;;;;5053680;28;20096;-81
2021/07/11 12:43:52;;;;;;;3.00;1.80;;;24.20;85.90;;;;;;5058825;28;20053;-77
2021/07/11 12:46:23;;;;;;;3.25;1.40;;;;;;;;;;5056076;28;20503;-78
2021/07/11 12:48:50;;;;;;;2.85;1.88;;;24.50;82.50;;;;;;5061886;28;20024;-80
2021/07/11 12:51:17;;;;;;;2.38;1.40;;;24.50;82.50;;;;;;5057882;28;20036;-80
2021/07/11 12:53:43;;;;;;;2.30;1.30;;;24.70;79.90;;;;;;5060965;28;20126;-79
2021/07/11 12:56:09;;;;;;;3.05;1.80;;;;;;;;;;5057812;28;20152;-80
2021/07/11 12:58:37;;;;;;;1.70;1.25;;;25.20;77.60;;;;;;5061025;28;21627;-78
2021/07/11 13:01:06;;;;;;;2.03;1.33;;;25.40;78.70;;;;;;5056039;28;20033;-77
2021/07/11 13:03:32;;;;;;;1.65;1.30;;;25.40;79.70;;;;;;5055688;28;20024;-78
2021/07/11 13:05:59;;;;;;;2.03;1.30;;;25.30;77.80;;;;;;5071359;28;20559;-78
2021/07/11 13:08:24;;;;;;;1.75;1.10;;;25.40;77.30;;;;;;5058985;28;20040;-79
2021/07/11 13:10:50;;;;;;;2.25;1.33;;;25.50;76.90;;;;;;5055987;28;20029;-77
2021/07/11 13:13:17;;;;;;;2.22;1.40;;;25.60;77.50;;;;;;5054487;28;20113;-78
2021/07/11 13:15:43;;;;;;;1.48;1.23;;;28.00;77.50;;;;;;5056305;28;20092;-78